createdAt,value
2023-05-14T00:00:58.433Z,16.10
2023-05-14T00:02:00.895Z,16.26
2023-05-14T00:03:02.583Z,16.29
2023-05-14T00:04:05.567Z,16.39
2023-05-14T00:05:08.028Z,16.47
2023-05-14T00:06:10.839Z,16.47
2023-05-14T00:07:12.442Z,16.48
2023-05-14T00:08:14.920Z,16.58
2023-05-14T00:09:17.392Z,16.52
2023-05-14T00:10:20.668Z,16.62
2023-05-14T00:11:23.301Z,16.70
2023-05-14T00:12:24.923Z,16.75
2023-05-14T00:13:27.536Z,16.81
2023-05-14T00:14:29.253Z,16.32
2023-05-14T00:15:33.616Z,15.96
2023-05-14T00:16:37.166Z,16.01
2023-05-14T00:17:39.807Z,16.24
2023-05-14T00:18:41.570Z,16.17
2023-05-14T00:19:44.179Z,16.23
2023-05-14T00:20:45.801Z,16.38
2023-05-14T00:21:48.307Z,16.49
2023-05-14T00:22:49.822Z,16.20
2023-05-14T00:23:52.237Z,16.33
2023-05-14T00:24:53.775Z,16.40
2023-05-14T00:25:56.332Z,16.45
2023-05-14T00:26:57.830Z,16.54
2023-05-14T00:28:00.356Z,16.44
2023-05-14T00:29:01.872Z,16.32
2023-05-14T00:30:06.346Z,16.39
2023-05-14T00:31:07.911Z,16.46
2023-05-14T00:32:11.820Z,16.31
2023-05-14T00:33:13.433Z,16.43
2023-05-14T00:34:15.897Z,16.51
2023-05-14T00:35:17.431Z,16.10
2023-05-14T00:36:19.906Z,16.19
2023-05-14T00:37:21.418Z,16.24
2023-05-14T00:38:27.560Z,16.08
2023-05-14T00:39:29.032Z,15.99
2023-05-14T00:40:31.663Z,15.80
2023-05-14T00:41:33.317Z,15.96
2023-05-14T00:42:35.753Z,15.26
2023-05-14T00:43:38.164Z,14.85
2023-05-14T00:44:39.715Z,14.35
2023-05-14T00:45:42.340Z,14.24
2023-05-14T00:46:44.018Z,14.42
2023-05-14T00:47:48.530Z,14.12
2023-05-14T00:48:50.148Z,13.93
2023-05-14T00:49:52.717Z,13.79
2023-05-14T00:50:54.669Z,13.75
2023-05-14T00:51:59.025Z,13.87
2023-05-14T00:53:00.682Z,14.23
2023-05-14T00:54:03.589Z,14.23
2023-05-14T00:55:06.610Z,14.01
2023-05-14T00:56:09.574Z,13.98
2023-05-14T00:57:11.098Z,14.09
2023-05-14T00:58:14.640Z,14.35
2023-05-14T00:59:16.261Z,14.19
2023-05-14T01:00:19.225Z,14.10
2023-05-14T01:01:21.049Z,13.97
2023-05-14T01:02:24.003Z,13.89
2023-05-14T01:03:27.204Z,13.60
2023-05-14T01:04:30.301Z,13.93
2023-05-14T01:05:39.523Z,13.99
2023-05-14T01:06:52.231Z,13.84
2023-05-14T01:08:02.133Z,13.60
2023-05-14T01:09:14.651Z,13.94
2023-05-14T01:10:23.770Z,14.10
2023-05-14T01:11:29.967Z,14.07
2023-05-14T01:12:39.442Z,14.10
2023-05-14T01:13:53.737Z,13.71
2023-05-14T01:15:03.158Z,13.68
2023-05-14T01:16:05.937Z,13.53
2023-05-14T01:17:12.016Z,13.65
2023-05-14T01:18:16.836Z,13.61
2023-05-14T01:19:31.257Z,13.46
2023-05-14T01:20:32.783Z,13.51
2023-05-14T01:21:38.459Z,13.76
2023-05-14T01:22:40.084Z,14.08
2023-05-14T01:23:42.520Z,14.28
2023-05-14T01:24:44.081Z,14.53
2023-05-14T01:25:46.611Z,14.70
2023-05-14T01:26:48.089Z,14.88
2023-05-14T01:27:58.605Z,14.73
2023-05-14T01:29:04.035Z,14.54
2023-05-14T01:30:14.610Z,14.86
2023-05-14T01:31:20.334Z,14.42
2023-05-14T01:32:24.675Z,14.02
2023-05-14T01:33:29.404Z,13.98
2023-05-14T01:34:32.608Z,13.94
2023-05-14T01:35:34.257Z,14.33
2023-05-14T01:36:38.664Z,14.70
2023-05-14T01:37:42.060Z,14.98
2023-05-14T01:38:47.159Z,15.20
2023-05-14T01:39:50.821Z,15.34
2023-05-14T01:40:54.452Z,15.44
2023-05-14T01:41:56.448Z,15.53
2023-05-14T01:42:59.315Z,15.66
2023-05-14T01:44:01.017Z,15.76
2023-05-14T01:45:04.184Z,15.77
2023-05-14T01:46:05.688Z,15.78
2023-05-14T01:47:08.174Z,15.76
2023-05-14T01:48:09.778Z,15.82
2023-05-14T01:49:12.259Z,15.77
2023-05-14T01:50:13.902Z,15.72
2023-05-14T01:51:16.476Z,15.67
2023-05-14T01:52:21.276Z,15.68
2023-05-14T01:53:24.025Z,15.35
2023-05-14T01:54:25.512Z,15.51
2023-05-14T01:55:27.975Z,15.46
2023-05-14T01:56:29.532Z,15.58
2023-05-14T01:57:32.063Z,15.63
2023-05-14T01:58:33.600Z,15.52
2023-05-14T01:59:36.079Z,15.17
2023-05-14T02:00:38.281Z,15.03
2023-05-14T02:01:40.788Z,15.17
2023-05-14T02:02:42.558Z,15.13
2023-05-14T02:03:45.075Z,15.13
2023-05-14T02:04:46.633Z,15.24
2023-05-14T02:05:49.067Z,15.40
2023-05-14T02:06:51.536Z,15.42
2023-05-14T02:07:54.376Z,15.46
2023-05-14T02:08:56.816Z,15.57
2023-05-14T02:09:58.480Z,15.48
2023-05-14T02:11:00.924Z,15.43
2023-05-14T02:12:02.453Z,15.49
2023-05-14T02:13:04.908Z,15.32
2023-05-14T02:14:06.557Z,15.37
2023-05-14T02:15:10.984Z,15.38
2023-05-14T02:16:12.923Z,15.33
2023-05-14T02:17:16.543Z,15.44
2023-05-14T02:18:18.171Z,14.75
2023-05-14T02:19:20.687Z,14.38
2023-05-14T02:20:22.415Z,14.16
2023-05-14T02:21:25.326Z,14.00
2023-05-14T02:22:27.019Z,14.03
2023-05-14T02:23:40.410Z,14.38
2023-05-14T02:24:43.309Z,14.49
2023-05-14T02:25:45.853Z,14.53
2023-05-14T02:26:47.724Z,14.56
2023-05-14T02:27:50.653Z,14.73
2023-05-14T02:28:52.175Z,14.81
2023-05-14T02:29:56.487Z,14.50
2023-05-14T02:30:58.934Z,14.51
2023-05-14T02:32:01.464Z,14.69
2023-05-14T02:33:03.092Z,14.83
2023-05-14T02:34:07.409Z,14.77
2023-05-14T02:35:09.678Z,14.54
2023-05-14T02:36:12.220Z,14.62
2023-05-14T02:37:13.723Z,14.62
2023-05-14T02:38:16.421Z,14.78
2023-05-14T02:39:19.253Z,14.76
2023-05-14T02:40:21.921Z,14.90
2023-05-14T02:41:23.640Z,14.97
2023-05-14T02:42:26.103Z,15.08
2023-05-14T02:43:27.624Z,15.17
2023-05-14T02:44:31.822Z,15.21
2023-05-14T02:45:33.371Z,15.23
2023-05-14T02:46:36.057Z,15.15
2023-05-14T02:47:38.358Z,15.23
2023-05-14T02:48:40.917Z,15.18
2023-05-14T02:49:42.456Z,15.25
2023-05-14T02:50:44.894Z,15.29
2023-05-14T02:51:46.390Z,15.23
2023-05-14T02:52:48.867Z,15.06
2023-05-14T02:53:50.434Z,15.10
2023-05-14T02:54:54.169Z,15.16
2023-05-14T02:55:55.958Z,15.13
2023-05-14T02:56:58.768Z,15.20
2023-05-14T02:58:00.201Z,15.20
2023-05-14T02:59:02.599Z,15.18
2023-05-14T03:00:05.984Z,15.13
2023-05-14T03:01:09.385Z,15.00
2023-05-14T03:02:11.413Z,15.07
2023-05-14T03:03:14.578Z,15.02
2023-05-14T03:04:16.414Z,15.03
2023-05-14T03:05:18.842Z,15.06
2023-05-14T03:06:20.354Z,14.98
2023-05-14T03:07:22.806Z,15.01
2023-05-14T03:08:24.439Z,14.89
2023-05-14T03:09:26.850Z,14.93
2023-05-14T03:10:29.662Z,14.95
2023-05-14T03:11:32.168Z,14.93
2023-05-14T03:12:33.688Z,14.82
2023-05-14T03:13:36.135Z,14.92
2023-05-14T03:14:37.674Z,15.03
2023-05-14T03:15:40.064Z,14.98
2023-05-14T03:16:42.295Z,14.88
2023-05-14T03:17:45.032Z,14.87
2023-05-14T03:18:46.614Z,14.91
2023-05-14T03:19:49.087Z,14.90
2023-05-14T03:20:50.600Z,15.01
2023-05-14T03:21:53.122Z,15.02
2023-05-14T03:22:56.049Z,15.09
2023-05-14T03:23:58.556Z,15.09
2023-05-14T03:25:00.064Z,15.05
2023-05-14T03:26:04.899Z,15.14
2023-05-14T03:27:06.742Z,15.21
2023-05-14T03:28:09.729Z,15.08
2023-05-14T03:29:11.228Z,14.98
2023-05-14T03:30:14.094Z,14.77
2023-05-14T03:31:15.712Z,14.74
2023-05-14T03:32:18.736Z,14.88
2023-05-14T03:33:21.147Z,14.84
2023-05-14T03:34:23.708Z,14.93
2023-05-14T03:35:25.452Z,14.81
2023-05-14T03:36:28.069Z,14.69
2023-05-14T03:37:29.622Z,14.75
2023-05-14T03:38:32.132Z,14.85
2023-05-14T03:39:33.828Z,14.83
2023-05-14T03:40:36.358Z,14.72
2023-05-14T03:41:39.299Z,14.63
2023-05-14T03:42:41.720Z,14.65
2023-05-14T03:43:43.232Z,14.75
2023-05-14T03:44:46.025Z,14.77
2023-05-14T03:45:48.295Z,14.77
2023-05-14T03:46:50.771Z,14.79
2023-05-14T03:47:52.391Z,14.84
2023-05-14T03:48:54.886Z,14.81
2023-05-14T03:49:56.899Z,14.79
2023-05-14T03:50:59.533Z,14.82
2023-05-14T03:52:01.199Z,14.88
2023-05-14T03:53:03.674Z,14.96
2023-05-14T03:54:05.515Z,14.85
2023-05-14T03:55:08.668Z,14.66
2023-05-14T03:56:10.217Z,14.69
2023-05-14T03:57:14.031Z,14.82
2023-05-14T03:58:15.837Z,14.87
2023-05-14T03:59:18.315Z,14.99
2023-05-14T04:00:20.413Z,15.00
2023-05-14T04:01:22.916Z,14.96
2023-05-14T04:02:24.484Z,14.99
2023-05-14T04:03:27.077Z,15.02
2023-05-14T04:04:28.712Z,15.04
2023-05-14T04:05:31.228Z,15.04
2023-05-14T04:06:33.129Z,15.00
2023-05-14T04:07:35.594Z,15.02
2023-05-14T04:08:37.109Z,15.10
2023-05-14T04:09:39.519Z,15.15
2023-05-14T04:10:41.158Z,15.22
2023-05-14T04:11:43.664Z,15.29
2023-05-14T04:12:46.541Z,15.32
2023-05-14T04:13:49.017Z,15.26
2023-05-14T04:14:50.589Z,15.24
2023-05-14T04:15:53.164Z,15.24
2023-05-14T04:16:54.717Z,15.25
2023-05-14T04:17:57.245Z,15.22
2023-05-14T04:19:00.441Z,15.24
2023-05-14T04:20:03.247Z,15.25
2023-05-14T04:21:05.286Z,15.28
2023-05-14T04:22:07.918Z,15.27
2023-05-14T04:23:09.373Z,15.24
2023-05-14T04:24:11.796Z,15.29
2023-05-14T04:25:13.297Z,15.01
2023-05-14T04:26:15.944Z,14.60
2023-05-14T04:27:21.099Z,14.57
2023-05-14T04:28:24.955Z,14.33
2023-05-14T04:29:26.537Z,14.03
2023-05-14T04:30:29.593Z,13.63
2023-05-14T04:31:31.744Z,13.51
2023-05-14T04:32:34.310Z,13.84
2023-05-14T04:33:35.918Z,14.13
2023-05-14T04:34:38.350Z,14.23
2023-05-14T04:35:39.860Z,14.53
2023-05-14T04:36:42.379Z,14.76
2023-05-14T04:37:43.854Z,14.93
2023-05-14T04:38:46.524Z,15.09
2023-05-14T04:39:47.990Z,15.24
2023-05-14T04:40:50.703Z,15.25
2023-05-14T04:41:52.473Z,15.34
2023-05-14T04:42:55.048Z,15.49
2023-05-14T04:44:00.632Z,15.60
2023-05-14T04:45:05.120Z,15.65
2023-05-14T04:46:06.857Z,15.28
2023-05-14T04:47:09.318Z,15.39
2023-05-14T04:48:10.901Z,15.49
2023-05-14T04:49:13.423Z,15.63
2023-05-14T04:50:15.517Z,15.62
2023-05-14T04:51:18.466Z,15.65
2023-05-14T04:52:20.039Z,15.60
2023-05-14T04:53:22.469Z,15.21
2023-05-14T04:54:24.094Z,15.04
2023-05-14T04:55:27.276Z,15.14
2023-05-14T04:56:28.782Z,15.41
2023-05-14T04:57:31.486Z,15.06
2023-05-14T04:58:35.092Z,15.36
2023-05-14T04:59:39.390Z,15.45
2023-05-14T05:00:41.887Z,15.29
2023-05-14T05:01:43.599Z,14.91
2023-05-14T05:02:46.179Z,15.11
2023-05-14T05:03:47.850Z,15.06
2023-05-14T05:04:50.328Z,15.07
2023-05-14T05:05:52.025Z,15.29
2023-05-14T05:06:54.451Z,15.27
2023-05-14T05:07:56.107Z,15.51
2023-05-14T05:09:00.631Z,15.76
2023-05-14T05:10:04.330Z,15.86
2023-05-14T05:11:06.807Z,15.64
2023-05-14T05:12:09.061Z,15.80
2023-05-14T05:13:11.604Z,15.98
2023-05-14T05:14:13.187Z,16.23
2023-05-14T05:15:17.106Z,16.29
2023-05-14T05:16:18.738Z,16.34
2023-05-14T05:17:21.348Z,16.28
2023-05-14T05:18:22.947Z,16.43
2023-05-14T05:19:35.595Z,16.53
2023-05-14T05:20:37.634Z,16.55
2023-05-14T05:21:40.824Z,16.56
2023-05-14T05:22:42.422Z,16.57
2023-05-14T05:23:44.851Z,16.66
2023-05-14T05:24:48.016Z,16.69
2023-05-14T05:25:51.686Z,16.73
2023-05-14T05:26:53.983Z,16.67
2023-05-14T05:27:56.542Z,16.77
2023-05-14T05:28:58.035Z,16.81
2023-05-14T05:30:02.116Z,16.70
2023-05-14T05:31:06.492Z,16.75
2023-05-14T05:32:08.185Z,16.83
2023-05-14T05:33:11.015Z,16.94
2023-05-14T05:34:12.711Z,16.94
2023-05-14T05:35:15.171Z,16.92
2023-05-14T05:36:16.698Z,16.86
2023-05-14T05:37:19.131Z,16.77
2023-05-14T05:38:20.810Z,16.80
2023-05-14T05:39:23.383Z,16.44
2023-05-14T05:40:25.028Z,16.69
2023-05-14T05:41:27.768Z,16.92
2023-05-14T05:42:29.253Z,16.87
2023-05-14T05:43:33.493Z,16.97
2023-05-14T05:44:35.014Z,16.97
2023-05-14T05:45:37.517Z,17.06
2023-05-14T05:46:40.454Z,17.17
2023-05-14T05:47:42.972Z,17.17
2023-05-14T05:48:45.589Z,17.18
2023-05-14T05:49:47.046Z,17.28
2023-05-14T05:50:50.440Z,17.26
2023-05-14T05:51:51.946Z,17.42
2023-05-14T05:52:54.414Z,17.42
2023-05-14T05:53:56.109Z,17.55
2023-05-14T05:54:58.546Z,17.48
2023-05-14T05:56:01.015Z,17.61
2023-05-14T05:57:02.520Z,17.58
2023-05-14T05:58:04.985Z,17.35
2023-05-14T05:59:06.480Z,17.10
2023-05-14T06:00:13.748Z,16.70
2023-05-14T06:01:15.211Z,17.03
2023-05-14T06:02:20.041Z,17.13
2023-05-14T06:03:22.366Z,17.29
2023-05-14T06:04:24.886Z,17.40
2023-05-14T06:05:26.539Z,17.46
2023-05-14T06:06:29.601Z,17.33
2023-05-14T06:07:31.158Z,17.21
2023-05-14T06:08:33.686Z,17.15
2023-05-14T06:09:35.293Z,16.93
2023-05-14T06:10:40.792Z,16.68
2023-05-14T06:11:42.306Z,16.86
2023-05-14T06:12:44.770Z,17.02
2023-05-14T06:13:46.292Z,16.94
2023-05-14T06:14:48.942Z,17.16
2023-05-14T06:15:50.413Z,17.03
2023-05-14T06:16:52.994Z,17.29
2023-05-14T06:17:55.930Z,17.26
2023-05-14T06:18:59.154Z,17.22
2023-05-14T06:20:00.685Z,16.98
2023-05-14T06:21:03.130Z,16.59
2023-05-14T06:22:05.098Z,16.03
2023-05-14T06:23:07.867Z,16.14
2023-05-14T06:24:09.872Z,16.42
2023-05-14T06:25:12.827Z,16.80
2023-05-14T06:26:14.381Z,16.87
2023-05-14T06:27:16.810Z,17.06
2023-05-14T06:28:18.345Z,17.15
2023-05-14T06:29:20.763Z,17.28
2023-05-14T06:30:22.542Z,17.54
2023-05-14T06:31:25.323Z,17.72
2023-05-14T06:32:26.842Z,17.84
2023-05-14T06:33:31.234Z,17.18
2023-05-14T06:34:33.168Z,17.17
2023-05-14T06:35:35.766Z,16.44
2023-05-14T06:36:38.375Z,16.43
2023-05-14T06:37:39.859Z,16.45
2023-05-14T06:38:42.281Z,16.38
2023-05-14T06:39:49.842Z,16.26
2023-05-14T06:40:52.959Z,16.12
2023-05-14T06:41:54.420Z,16.24
2023-05-14T06:42:56.850Z,16.53
2023-05-14T06:43:58.351Z,16.67
2023-05-14T06:45:00.818Z,16.68
2023-05-14T06:46:02.459Z,16.72
2023-05-14T06:47:08.496Z,16.75
2023-05-14T06:48:10.262Z,16.62
2023-05-14T06:49:14.302Z,16.86
2023-05-14T06:50:15.886Z,17.04
2023-05-14T06:51:18.342Z,17.05
2023-05-14T06:52:19.871Z,16.97
2023-05-14T06:53:22.383Z,17.09
2023-05-14T06:54:23.874Z,17.32
2023-05-14T06:55:26.318Z,17.04
2023-05-14T06:56:28.127Z,16.86
2023-05-14T06:57:30.584Z,16.94
2023-05-14T06:58:32.112Z,16.74
2023-05-14T06:59:34.550Z,16.94
2023-05-14T07:00:36.049Z,16.90
2023-05-14T07:01:38.561Z,16.55
2023-05-14T07:02:40.406Z,16.38
2023-05-14T07:03:42.885Z,16.53
2023-05-14T07:04:46.161Z,16.44
2023-05-14T07:05:48.891Z,16.43
2023-05-14T07:06:50.416Z,16.73
2023-05-14T07:07:52.891Z,16.70
2023-05-14T07:08:54.434Z,17.06
2023-05-14T07:09:56.851Z,16.75
2023-05-14T07:10:58.559Z,16.86
2023-05-14T07:12:00.952Z,17.11
2023-05-14T07:13:03.447Z,17.33
2023-05-14T07:14:05.914Z,17.64
2023-05-14T07:15:08.860Z,17.83
2023-05-14T07:16:11.272Z,17.90
2023-05-14T07:17:12.896Z,17.99
2023-05-14T07:18:15.449Z,17.93
2023-05-14T07:19:17.172Z,18.08
2023-05-14T07:20:22.757Z,18.04
2023-05-14T07:21:26.092Z,17.91
2023-05-14T07:22:27.891Z,17.68
2023-05-14T07:23:30.330Z,17.74
2023-05-14T07:24:31.853Z,17.66
2023-05-14T07:25:34.382Z,17.63
2023-05-14T07:26:36.065Z,17.79
2023-05-14T07:27:38.593Z,17.80
2023-05-14T07:28:40.112Z,17.92
2023-05-14T07:29:42.595Z,17.70
2023-05-14T07:30:44.097Z,18.00
2023-05-14T07:31:46.553Z,17.97
2023-05-14T07:32:48.144Z,17.55
2023-05-14T07:33:50.819Z,17.54
2023-05-14T07:34:52.430Z,17.61
2023-05-14T07:35:56.264Z,17.83
2023-05-14T07:36:57.817Z,17.78
2023-05-14T07:38:00.326Z,17.55
2023-05-14T07:39:02.913Z,17.49
2023-05-14T07:40:05.314Z,17.62
2023-05-14T07:41:07.842Z,17.84
2023-05-14T07:42:09.317Z,17.84
2023-05-14T07:43:11.980Z,17.48
2023-05-14T07:44:13.547Z,17.26
2023-05-14T07:45:15.959Z,17.43
2023-05-14T07:46:17.971Z,17.25
2023-05-14T07:47:20.511Z,17.42
2023-05-14T07:48:22.262Z,17.81
2023-05-14T07:49:24.766Z,17.97
2023-05-14T07:50:26.668Z,17.94
2023-05-14T07:51:31.648Z,18.04
2023-05-14T07:52:33.176Z,17.84
2023-05-14T07:53:35.601Z,17.60
2023-05-14T07:54:37.223Z,17.46
2023-05-14T07:55:40.084Z,17.08
2023-05-14T07:56:41.620Z,17.06
2023-05-14T07:57:44.070Z,17.41
2023-05-14T07:58:45.797Z,17.74
2023-05-14T07:59:48.787Z,17.92
2023-05-14T08:00:50.530Z,18.00
2023-05-14T08:01:53.164Z,17.98
2023-05-14T08:02:55.528Z,17.91
2023-05-14T08:03:58.273Z,17.87
2023-05-14T08:04:59.861Z,17.88
2023-05-14T08:06:02.344Z,17.86
2023-05-14T08:07:05.411Z,17.50
2023-05-14T08:08:07.883Z,17.74
2023-05-14T08:09:09.695Z,18.17
2023-05-14T08:10:12.247Z,18.40
2023-05-14T08:11:13.815Z,18.72
2023-05-14T08:12:16.588Z,18.66
2023-05-14T08:13:18.125Z,18.44
2023-05-14T08:14:21.354Z,18.28
2023-05-14T08:15:24.564Z,18.12
2023-05-14T08:16:29.267Z,18.35
2023-05-14T08:17:30.859Z,18.31
2023-05-14T08:18:33.433Z,18.64
2023-05-14T08:19:35.067Z,18.67
2023-05-14T08:20:37.693Z,18.85
2023-05-14T08:21:39.225Z,18.95
2023-05-14T08:22:43.050Z,18.59
2023-05-14T08:23:44.605Z,18.62
2023-05-14T08:24:47.042Z,18.50
2023-05-14T08:25:48.580Z,18.59
2023-05-14T08:26:51.045Z,18.83
2023-05-14T08:27:54.105Z,19.20
2023-05-14T08:28:56.618Z,19.29
2023-05-14T08:29:58.152Z,18.76
2023-05-14T08:31:00.643Z,19.06
2023-05-14T08:32:08.721Z,19.24
2023-05-14T08:33:22.111Z,19.15
2023-05-14T08:34:23.621Z,19.41
2023-05-14T08:35:26.157Z,19.48
2023-05-14T08:36:27.720Z,19.73
2023-05-14T08:37:30.164Z,19.90
2023-05-14T08:38:33.967Z,19.83
2023-05-14T08:39:35.573Z,19.62
2023-05-14T08:40:38.160Z,19.88
2023-05-14T08:41:40.038Z,20.12
2023-05-14T08:42:44.771Z,20.28
2023-05-14T08:43:57.981Z,20.25
2023-05-14T08:45:01.929Z,19.75
2023-05-14T08:46:06.860Z,19.70
2023-05-14T08:47:09.007Z,19.28
2023-05-14T08:48:16.826Z,19.44
2023-05-14T08:49:29.355Z,19.69
2023-05-14T08:50:32.042Z,19.74
2023-05-14T08:51:33.786Z,19.51
2023-05-14T08:52:36.503Z,19.54
2023-05-14T08:53:40.408Z,19.77
2023-05-14T08:54:43.019Z,19.89
2023-05-14T08:55:46.011Z,19.50
2023-05-14T08:56:50.510Z,19.74
2023-05-14T08:57:53.963Z,20.11
2023-05-14T08:58:56.406Z,20.26
2023-05-14T08:59:58.515Z,20.41
2023-05-14T09:01:01.100Z,20.27
2023-05-14T09:02:06.302Z,20.40
2023-05-14T09:03:09.541Z,20.45
2023-05-14T09:04:11.585Z,20.70
2023-05-14T09:05:15.738Z,20.94
2023-05-14T09:06:18.334Z,20.88
2023-05-14T09:07:21.108Z,20.85
2023-05-14T09:08:22.994Z,20.80
2023-05-14T09:09:27.478Z,20.74
2023-05-14T09:10:29.007Z,20.13
2023-05-14T09:11:31.546Z,19.81
2023-05-14T09:12:33.995Z,20.00
2023-05-14T09:13:37.930Z,20.11
2023-05-14T09:14:40.510Z,20.24
2023-05-14T09:15:42.060Z,20.48
2023-05-14T09:16:46.812Z,20.67
2023-05-14T09:17:48.671Z,20.98
2023-05-14T09:18:52.320Z,21.14
2023-05-14T09:19:54.117Z,21.43
2023-05-14T09:20:56.797Z,21.60
2023-05-14T09:21:58.962Z,21.40
2023-05-14T09:23:01.707Z,20.93
2023-05-14T09:24:04.146Z,20.46
2023-05-14T09:25:11.903Z,20.29
2023-05-14T09:26:17.457Z,20.43
2023-05-14T09:27:21.311Z,20.46
2023-05-14T09:28:22.872Z,20.64
2023-05-14T09:29:25.691Z,20.60
2023-05-14T09:30:27.445Z,20.68
2023-05-14T09:31:30.869Z,20.40
2023-05-14T09:32:35.953Z,20.54
2023-05-14T09:33:38.613Z,20.49
2023-05-14T09:34:40.728Z,20.29
2023-05-14T09:35:43.443Z,20.42
2023-05-14T09:36:45.253Z,20.90
2023-05-14T09:37:49.483Z,21.20
2023-05-14T09:38:51.196Z,21.30
2023-05-14T09:39:53.651Z,20.94
2023-05-14T09:40:56.831Z,20.61
2023-05-14T09:41:59.297Z,19.78
2023-05-14T09:43:01.839Z,19.35
2023-05-14T09:44:06.110Z,19.68
2023-05-14T09:45:09.183Z,19.75
2023-05-14T09:46:11.660Z,20.01
2023-05-14T09:47:14.975Z,20.09
2023-05-14T09:48:17.535Z,19.90
2023-05-14T09:49:19.345Z,19.65
2023-05-14T09:50:22.497Z,19.78
2023-05-14T09:51:24.425Z,19.46
2023-05-14T09:52:27.205Z,19.82
2023-05-14T09:53:30.843Z,19.76
2023-05-14T09:54:33.382Z,19.61
2023-05-14T09:55:37.285Z,19.89
2023-05-14T09:56:40.265Z,20.00
2023-05-14T09:57:43.011Z,20.28
2023-05-14T09:58:44.570Z,20.46
2023-05-14T09:59:47.267Z,20.59
2023-05-14T10:00:49.101Z,20.71
2023-05-14T10:01:52.880Z,20.83
2023-05-14T10:02:57.782Z,20.47
2023-05-14T10:03:59.476Z,20.78
2023-05-14T10:05:04.910Z,20.91
2023-05-14T10:06:07.259Z,20.58
2023-05-14T10:07:10.366Z,20.73
2023-05-14T10:08:19.312Z,21.00
2023-05-14T10:09:26.264Z,21.33
2023-05-14T10:10:29.126Z,20.80
2023-05-14T10:11:34.490Z,20.47
2023-05-14T10:12:40.482Z,21.04
2023-05-14T10:13:46.430Z,21.53
2023-05-14T10:14:49.704Z,21.08
2023-05-14T10:15:58.581Z,21.20
2023-05-14T10:17:01.593Z,21.44
2023-05-14T10:18:08.957Z,21.91
2023-05-14T10:19:11.510Z,22.42
2023-05-14T10:20:17.098Z,22.76
2023-05-14T10:21:20.739Z,23.36
2023-05-14T10:22:24.824Z,23.07
2023-05-14T10:23:27.152Z,23.52
2023-05-14T10:24:30.521Z,23.66
2023-05-14T10:25:32.527Z,23.12
2023-05-14T10:26:38.445Z,23.66
2023-05-14T10:27:42.378Z,22.44
2023-05-14T10:28:45.061Z,21.69
2023-05-14T10:29:53.845Z,22.87
2023-05-14T10:30:56.445Z,22.14
2023-05-14T10:31:58.002Z,22.52
2023-05-14T10:33:08.284Z,21.52
2023-05-14T10:34:32.342Z,20.92
2023-05-14T10:35:52.310Z,21.19
2023-05-14T10:36:53.850Z,21.58
2023-05-14T10:37:57.721Z,22.20
2023-05-14T10:39:04.322Z,22.74
2023-05-14T10:40:08.296Z,23.27
2023-05-14T10:41:12.702Z,23.67
2023-05-14T10:42:18.061Z,23.44
2023-05-14T10:43:23.399Z,24.15
2023-05-14T10:44:24.886Z,23.35
2023-05-14T10:45:28.083Z,24.03
2023-05-14T10:46:29.794Z,24.52
2023-05-14T10:47:33.150Z,25.04
2023-05-14T10:48:36.579Z,24.64
2023-05-14T10:49:43.251Z,24.26
2023-05-14T10:50:48.986Z,24.17
2023-05-14T10:51:52.909Z,24.67
2023-05-14T10:52:57.041Z,25.80
2023-05-14T10:54:01.044Z,26.34
2023-05-14T10:55:07.601Z,27.01
2023-05-14T10:56:10.325Z,26.77
2023-05-14T10:57:15.459Z,26.51
2023-05-14T10:58:18.999Z,27.13
2023-05-14T10:59:27.059Z,26.55
2023-05-14T11:00:29.589Z,24.90
2023-05-14T11:01:31.957Z,24.14
2023-05-14T11:02:36.781Z,23.97
2023-05-14T11:03:42.679Z,23.30
2023-05-14T11:04:53.657Z,22.80
2023-05-14T11:05:56.624Z,22.71
2023-05-14T11:06:58.856Z,22.43
2023-05-14T11:08:05.484Z,23.07
2023-05-14T11:09:07.226Z,23.01
2023-05-14T11:10:11.192Z,23.20
2023-05-14T11:11:13.646Z,23.05
2023-05-14T11:12:15.234Z,23.13
2023-05-14T11:13:18.647Z,22.96
2023-05-14T11:14:20.262Z,22.96
2023-05-14T11:15:26.014Z,23.05
2023-05-14T11:16:30.711Z,23.09
2023-05-14T11:17:33.695Z,23.18
2023-05-14T11:18:38.460Z,23.52
2023-05-14T11:19:43.383Z,23.61
2023-05-14T11:20:45.878Z,23.30
2023-05-14T11:21:47.417Z,22.94
2023-05-14T11:22:51.490Z,22.37
2023-05-14T11:23:54.666Z,22.16
2023-05-14T11:24:57.443Z,21.99
2023-05-14T11:25:59.014Z,21.93
2023-05-14T11:27:01.477Z,21.07
2023-05-14T11:28:04.005Z,21.07
2023-05-14T11:29:05.524Z,21.21
2023-05-14T11:30:14.194Z,21.27
2023-05-14T11:31:17.186Z,21.42
2023-05-14T11:32:20.863Z,21.73
2023-05-14T11:33:22.441Z,21.78
2023-05-14T11:35:26.484Z,21.51
2023-05-14T11:36:28.902Z,21.17
2023-05-14T11:37:30.673Z,21.25
2023-05-14T11:38:33.189Z,21.32
2023-05-14T11:39:36.023Z,20.95
2023-05-14T11:40:38.459Z,21.30
2023-05-14T11:41:44.123Z,21.42
2023-05-14T11:42:46.733Z,21.43
2023-05-14T11:43:48.692Z,21.08
2023-05-14T11:44:54.093Z,21.28
2023-05-14T11:45:57.061Z,21.10
2023-05-14T11:47:01.445Z,21.19
2023-05-14T11:48:04.071Z,20.98
2023-05-14T11:49:06.601Z,20.87
2023-05-14T11:50:09.982Z,21.06
2023-05-14T11:51:11.538Z,21.31
2023-05-14T11:52:15.322Z,21.88
2023-05-14T11:53:18.573Z,21.70
2023-05-14T11:54:20.956Z,21.18
2023-05-14T11:55:23.416Z,20.99
2023-05-14T11:56:24.874Z,21.09
2023-05-14T11:57:27.313Z,21.47
2023-05-14T11:58:32.380Z,21.32
2023-05-14T11:59:35.050Z,21.47
2023-05-14T12:00:38.817Z,21.32
2023-05-14T12:01:41.396Z,21.20
2023-05-14T12:02:44.331Z,21.35
2023-05-14T12:03:47.375Z,21.52
2023-05-14T12:04:51.819Z,21.72
2023-05-14T12:05:57.938Z,21.74
2023-05-14T12:07:00.536Z,21.89
2023-05-14T12:08:02.941Z,21.96
2023-05-14T12:09:05.066Z,22.16
2023-05-14T12:10:08.907Z,21.98
2023-05-14T12:11:10.433Z,21.73
2023-05-14T12:12:13.592Z,21.74
2023-05-14T12:13:16.867Z,22.08
2023-05-14T12:14:20.330Z,22.21
2023-05-14T12:15:23.546Z,22.13
2023-05-14T12:16:30.713Z,22.08
2023-05-14T12:17:33.714Z,22.03
2023-05-14T12:18:37.209Z,21.86
2023-05-14T12:19:42.550Z,22.26
2023-05-14T12:20:47.214Z,22.08
2023-05-14T12:21:51.169Z,22.29
2023-05-14T12:22:52.714Z,22.08
2023-05-14T12:23:59.733Z,22.10
2023-05-14T12:25:01.270Z,22.43
2023-05-14T12:26:06.265Z,22.49
2023-05-14T12:27:10.406Z,22.11
2023-05-14T12:28:15.940Z,21.70
2023-05-14T12:29:17.490Z,22.12
2023-05-14T12:30:21.639Z,21.92
2023-05-14T12:31:36.783Z,21.69
2023-05-14T12:32:40.920Z,22.61
2023-05-14T12:33:44.045Z,23.20
2023-05-14T12:34:46.500Z,23.88
2023-05-14T12:35:48.964Z,23.96
2023-05-14T12:36:50.532Z,23.20
2023-05-14T12:37:52.985Z,22.10
2023-05-14T12:39:00.412Z,21.35
2023-05-14T12:40:02.039Z,21.73
2023-05-14T12:41:04.462Z,22.11
2023-05-14T12:42:06.418Z,22.62
2023-05-14T12:43:08.892Z,23.10
2023-05-14T12:44:10.436Z,22.97
2023-05-14T12:45:12.951Z,23.40
2023-05-14T12:46:14.684Z,24.02
2023-05-14T12:47:17.971Z,24.73
2023-05-14T12:48:19.581Z,24.93
2023-05-14T12:49:25.676Z,24.43
2023-05-14T12:50:27.380Z,25.20
2023-05-14T12:51:30.044Z,25.83
2023-05-14T12:53:36.941Z,26.01
2023-05-14T12:54:42.308Z,26.07
2023-05-14T12:55:45.308Z,25.26
2023-05-14T12:56:46.936Z,24.98
2023-05-14T12:57:49.496Z,25.23
2023-05-14T12:58:50.988Z,24.83
2023-05-14T12:59:53.478Z,24.19
2023-05-14T13:00:55.049Z,23.94
2023-05-14T13:01:57.608Z,24.21
2023-05-14T13:02:59.188Z,24.70
2023-05-14T13:04:01.756Z,24.50
2023-05-14T13:05:05.809Z,24.82
2023-05-14T13:06:08.960Z,24.83
2023-05-14T13:07:10.721Z,24.29
2023-05-14T13:08:14.813Z,24.33
2023-05-14T13:09:17.282Z,24.60
2023-05-14T13:10:18.976Z,23.55
2023-05-14T13:11:21.734Z,23.54
2023-05-14T13:12:23.675Z,23.93
2023-05-14T13:13:26.282Z,24.42
2023-05-14T13:14:27.781Z,23.29
2023-05-14T13:15:31.549Z,23.30
2023-05-14T13:16:34.053Z,23.77
2023-05-14T13:17:36.034Z,24.58
2023-05-14T13:18:38.474Z,25.26
2023-05-14T13:19:39.965Z,25.44
2023-05-14T13:20:43.757Z,25.68
2023-05-14T13:21:46.209Z,25.88
2023-05-14T13:22:47.689Z,26.00
2023-05-14T13:23:50.637Z,25.82
2023-05-14T13:24:52.123Z,25.03
2023-05-14T13:25:54.549Z,24.96
2023-05-14T13:26:56.069Z,24.79
2023-05-14T13:27:59.587Z,24.71
2023-05-14T13:29:01.049Z,24.57
2023-05-14T13:30:03.972Z,24.41
2023-05-14T13:31:08.009Z,23.64
2023-05-14T13:32:10.868Z,22.94
2023-05-14T13:33:12.429Z,22.97
2023-05-14T13:34:14.909Z,22.50